Capron, Oklahoma
Current Conditions -  °F | °C
As of 3:30 PM on Thursday 23 Oct 2014 (Local Time) from KAVK Reporting Station
Clear Clear  
Wind Chill: 75°   Ceiling: Unl
Heat Index: 75°   Visibility: 10mi
Dew Point: 59°   Wind: 5mph
Humidity: 57%   Direction: 180°S
Pressure: 30.04"   Gusts: NA
Location:  36.8367°N, 98.8022°W
Report Text: KAVK 232030Z AUTO 18004KT 10SM CLR 24/15 A3004 RMK AO2
Loading
Personal Weather Stations






























Interactive Weather Map New forecast layout! Learn more

10-Day Weather Forecast

Advertisements
Track Severe Weather on mobile